Airfield :
LOGIN :

Register | Disclaimer

   EN    FR    IT 

 










Legend :    VFR   Marginal VFR   IFR   Intensive IFR   Very Intensive IFR
Visi :
Ceiling :
>= 8 km
>= 3000ft
5 to 8 km
1000 to 3000 ft
1500m to 5 km
500 to 1000 ft
800 to 1500m
200 to 500 ft
< 800m
< 200 ft
Symbols :   Thunderstorms  Fog  Heavy snow  Heavy precipitations  Wind > 20 kt
SIGMETs :     Misc.  Thunderstorms  Icing  Turbulence  Mountain Waves  Volcanic Ashes







- Airport Elevation : 1046 ft
- IATA code : NUE


EDDN - Nuremberg

CURRENT METAR :
  • 190220Z 36002KT 4500 R28/0500V1300U BCFG FEW001 06/05 Q1022

EXPIRED METARs :
  • 190150Z VRB01KT 4000 BR BCFG FEW001 07/07 Q1022
  • 190120Z VRB01KT 4500 R28/0500V1900D BR BCFG FEW001 06/06 Q1022
  • 190050Z 35002KT 5000 BR NSC 07/06 Q1022
  • 190020Z 34003KT 5000 NSC 07/07 Q1022
  • 182350Z 01003KT 5000 FEW001 08/08 Q1022

TAF TAF EDDN
Valid from the 19 at 00:00 until the 20 at 00:00 UTC


182300Z 1900/1924 VRB03KT 6000 NSC
BECMG 1900/1902 3000 BR
BECMG 1907/1908 9000
TEMPO 1909/1916 06005KT
No reported NOTAMs for that airfield.



MET'MAP, your aeronautical weather chart ! - Copyright ORBIFLY December 2007 - Disclaimer

ORBIFLY MET'MAP TEAM :

Programming & Development : Alexandra Zaïnal
Concept & Development : Baudouin d'Aumeries
Co-Development & Prog : Marc-Olivier Méhu
Technical & hardware support : Manuel Goepfert

Contact : metmap@orbifly.com




SOURCES & CREDITS :

   NOAA